Time;durP1;ratioP1;P1;durP2;ratioP2;P2;SDS_P1;SDS_P2;PMS_P1;PMS_P2;Temp;Humidity;BMP_temperature;BMP_pressure;BME280_temperature;BME280_humidity;BME280_pressure;Samples;Min_cycle;Max_cycle;Signal;HPM_P1;HPM_P2
2021/09/08 00:00:34;;;;;;;24.48;15.52;;;10.70;99.90;;;;;;5080470;28;20492;-77
2021/09/08 00:03:00;;;;;;;22.10;14.35;;;10.70;99.90;;;;;;5082542;28;20029;-77
2021/09/08 00:05:26;;;;;;;24.42;14.25;;;10.60;99.90;;;;;;5081156;28;20024;-77
2021/09/08 00:07:52;;;;;;;19.10;13.73;;;10.60;99.90;;;;;;5078358;28;20025;-77
2021/09/08 00:10:18;;;;;;;18.00;12.23;;;10.50;99.90;;;;;;5081049;28;20028;-77
2021/09/08 00:12:43;;;;;;;17.95;12.05;;;10.40;99.90;;;;;;5082388;28;20032;-78
2021/09/08 00:15:10;;;;;;;18.67;12.15;;;10.30;99.90;;;;;;5081118;28;20035;-78
2021/09/08 00:17:36;;;;;;;15.80;11.85;;;10.30;99.90;;;;;;5081229;28;20051;-77
2021/09/08 00:20:03;;;;;;;17.38;12.18;;;10.20;99.90;;;;;;5084115;28;20478;-78
2021/09/08 00:22:29;;;;;;;21.05;12.65;;;10.20;99.90;;;;;;5078736;28;20455;-78
2021/09/08 00:24:54;;;;;;;15.90;11.80;;;10.20;99.90;;;;;;5080546;28;20064;-77
2021/09/08 00:27:20;;;;;;;17.73;11.27;;;10.10;99.90;;;;;;5082742;28;20025;-78
2021/09/08 00:29:46;;;;;;;19.80;13.25;;;10.10;99.90;;;;;;5080591;28;20111;-78
2021/09/08 00:32:11;;;;;;;18.77;13.77;;;10.10;99.90;;;;;;5083626;28;20118;-78
2021/09/08 00:34:37;;;;;;;20.52;13.45;;;10.10;99.90;;;;;;5080657;28;20474;-78
2021/09/08 00:37:03;;;;;;;22.75;14.13;;;10.10;99.90;;;;;;5084153;28;20024;-78
2021/09/08 00:39:28;;;;;;;28.73;16.73;;;10.10;99.90;;;;;;5082066;28;20023;-78
2021/09/08 00:41:54;;;;;;;26.05;15.20;;;10.10;99.90;;;;;;5083805;28;20028;-78
2021/09/08 00:44:25;;;;;;;27.63;15.30;;;10.10;99.90;;;;;;5084130;28;20024;-77
2021/09/08 00:46:51;;;;;;;23.13;14.10;;;10.10;99.90;;;;;;5083689;28;20120;-77
2021/09/08 00:49:17;;;;;;;20.88;13.73;;;10.10;99.90;;;;;;5082554;28;20135;-78
2021/09/08 00:51:45;;;;;;;18.65;13.30;;;10.10;99.90;;;;;;5082640;28;20067;-78
2021/09/08 00:54:13;;;;;;;21.05;12.90;;;10.10;99.90;;;;;;5082140;28;20020;-77
2021/09/08 00:56:44;;;;;;;23.83;13.82;;;10.10;99.90;;;;;;5083708;28;20016;-77
2021/09/08 00:59:10;;;;;;;21.75;13.95;;;10.00;99.90;;;;;;5085270;28;20024;-77
2021/09/08 01:01:36;;;;;;;23.02;13.45;;;10.00;99.90;;;;;;5085040;28;20438;-78
2021/09/08 01:04:02;;;;;;;20.70;14.02;;;9.90;99.90;;;;;;5086610;28;20033;-78
2021/09/08 01:06:28;;;;;;;18.77;12.27;;;9.90;99.90;;;;;;5085832;28;20095;-78
2021/09/08 01:08:54;;;;;;;17.38;12.65;;;9.90;99.90;;;;;;5082736;28;20394;-78
2021/09/08 01:11:21;;;;;;;18.10;12.15;;;9.80;99.90;;;;;;5081613;28;20023;-77
2021/09/08 01:13:46;;;;;;;17.15;11.52;;;9.80;99.90;;;;;;5083422;28;20013;-77
2021/09/08 01:16:12;;;;;;;19.65;11.60;;;9.70;99.90;;;;;;5084887;28;20029;-77
2021/09/08 01:18:38;;;;;;;20.60;12.27;;;9.70;99.90;;;;;;5085498;28;20461;-77
2021/09/08 01:21:04;;;;;;;16.20;10.52;;;9.70;99.90;;;;;;5085558;28;20032;-77
2021/09/08 01:23:31;;;;;;;19.98;12.35;;;9.70;99.90;;;;;;5085457;28;20126;-78
2021/09/08 01:26:03;;;;;;;21.20;12.77;;;9.70;99.90;;;;;;5083234;28;20031;-78
2021/09/08 01:28:29;;;;;;;21.83;13.10;;;9.60;99.90;;;;;;5082440;28;20048;-78
2021/09/08 01:30:56;;;;;;;18.63;12.80;;;9.60;99.90;;;;;;5082881;28;20071;-78
2021/09/08 01:33:22;;;;;;;21.67;13.38;;;9.60;99.90;;;;;;5081890;28;20078;-78
2021/09/08 01:35:47;;;;;;;24.30;13.15;;;9.60;99.90;;;;;;5083028;28;20523;-78
2021/09/08 01:38:14;;;;;;;28.38;15.95;;;9.60;99.90;;;;;;5086004;28;20029;-77
2021/09/08 01:40:39;;;;;;;23.70;13.05;;;9.60;99.90;;;;;;5082378;28;20074;-77
2021/09/08 01:43:05;;;;;;;19.05;12.82;;;9.60;99.90;;;;;;5083109;28;20032;-77
2021/09/08 01:45:31;;;;;;;16.63;12.13;;;9.50;99.90;;;;;;5086273;28;20527;-77
2021/09/08 01:47:57;;;;;;;18.65;11.98;;;9.50;99.90;;;;;;5082829;28;20027;-77
2021/09/08 01:50:23;;;;;;;20.27;13.38;;;9.50;99.90;;;;;;5085109;28;20127;-78
2021/09/08 01:52:50;;;;;;;18.55;11.93;;;9.50;99.90;;;;;;5084760;28;20040;-78
2021/09/08 01:55:16;;;;;;;19.05;12.93;;;9.50;99.90;;;;;;5079383;28;20428;-78
2021/09/08 01:57:42;;;;;;;21.08;13.65;;;9.40;99.90;;;;;;5078887;28;20021;-77
2021/09/08 02:00:09;;;;;;;23.33;13.88;;;9.50;99.90;;;;;;5080153;28;20119;-78
2021/09/08 02:02:35;;;;;;;20.95;13.63;;;9.40;99.90;;;;;;5082660;28;20024;-78
2021/09/08 02:05:01;;;;;;;17.20;12.07;;;9.40;99.90;;;;;;5081709;28;20031;-77
2021/09/08 02:07:26;;;;;;;22.42;13.15;;;9.40;99.90;;;;;;5082884;28;20047;-78
2021/09/08 02:09:52;;;;;;;20.30;13.85;;;9.40;99.90;;;;;;5081845;28;20060;-78
2021/09/08 02:12:18;;;;;;;20.35;12.95;;;9.40;99.90;;;;;;5084879;28;20179;-77
2021/09/08 02:14:44;;;;;;;18.88;12.38;;;9.30;99.90;;;;;;5081927;28;20024;-77
2021/09/08 02:17:09;;;;;;;21.42;13.43;;;9.30;99.90;;;;;;5081414;28;20081;-77
2021/09/08 02:19:35;;;;;;;21.13;13.30;;;9.30;99.90;;;;;;5084869;28;20028;-77
2021/09/08 02:22:01;;;;;;;23.67;14.23;;;9.30;99.90;;;;;;5084902;28;20024;-78
2021/09/08 02:24:27;;;;;;;22.17;13.55;;;9.20;99.90;;;;;;5079329;28;20113;-78
2021/09/08 02:26:52;;;;;;;21.15;13.40;;;9.30;99.90;;;;;;5080378;28;20028;-78
2021/09/08 02:29:18;;;;;;;21.08;14.07;;;9.20;99.90;;;;;;5083250;28;20024;-78
2021/09/08 02:31:43;;;;;;;22.77;14.60;;;9.20;99.90;;;;;;5083989;28;20050;-79
2021/09/08 02:34:09;;;;;;;31.75;15.85;;;9.20;99.90;;;;;;5083867;28;20396;-78
2021/09/08 02:36:35;;;;;;;27.13;16.45;;;9.20;99.90;;;;;;5084840;28;20036;-77
2021/09/08 02:39:01;;;;;;;31.70;17.88;;;9.20;99.90;;;;;;5083869;28;20216;-79
2021/09/08 02:41:27;;;;;;;28.75;15.55;;;9.20;99.90;;;;;;5082063;28;20032;-77
2021/09/08 02:43:53;;;;;;;27.92;15.23;;;9.20;99.90;;;;;;5080034;28;20020;-78
2021/09/08 02:46:19;;;;;;;30.65;17.08;;;9.20;99.90;;;;;;5084873;28;20035;-77
2021/09/08 02:48:45;;;;;;;26.98;15.05;;;9.10;99.90;;;;;;5081978;28;20020;-78
2021/09/08 02:51:11;;;;;;;20.05;13.70;;;9.10;99.90;;;;;;5084684;28;20482;-77
2021/09/08 02:53:37;;;;;;;22.10;13.15;;;9.10;99.90;;;;;;5079516;28;20040;-78
2021/09/08 02:56:03;;;;;;;22.00;12.57;;;9.00;99.90;;;;;;5083242;28;20027;-77
2021/09/08 02:58:29;;;;;;;21.70;13.27;;;9.00;99.90;;;;;;5080883;28;20027;-77
2021/09/08 03:00:56;;;;;;;22.25;14.07;;;9.00;99.90;;;;;;5083561;28;20016;-77
2021/09/08 03:03:22;;;;;;;23.15;13.07;;;9.00;99.90;;;;;;5078274;28;20389;-77
2021/09/08 03:05:50;;;;;;;25.90;14.05;;;9.00;99.90;;;;;;5083027;28;20099;-77
2021/09/08 03:08:16;;;;;;;23.63;13.98;;;8.90;99.90;;;;;;5081948;28;20150;-78
2021/09/08 03:10:44;;;;;;;20.92;13.73;;;8.90;99.90;;;;;;5078579;28;20027;-78
2021/09/08 03:13:11;;;;;;;28.05;15.43;;;9.00;99.90;;;;;;5081808;28;20378;-78
2021/09/08 03:15:37;;;;;;;25.17;14.15;;;8.90;99.90;;;;;;5083179;28;20058;-78
2021/09/08 03:18:04;;;;;;;27.10;14.00;;;8.90;99.90;;;;;;5081842;28;20036;-78
2021/09/08 03:20:30;;;;;;;24.20;12.57;;;8.90;99.90;;;;;;5084832;28;20103;-77
2021/09/08 03:22:55;;;;;;;24.27;13.23;;;8.90;99.90;;;;;;5081154;28;20149;-77
2021/09/08 03:25:21;;;;;;;25.42;13.85;;;8.90;99.90;;;;;;5081585;28;20494;-77
2021/09/08 03:27:46;;;;;;;23.65;14.10;;;8.90;99.90;;;;;;5083771;28;20024;-77
2021/09/08 03:30:12;;;;;;;25.35;14.07;;;8.90;99.90;;;;;;5081043;28;20035;-77
2021/09/08 03:32:38;;;;;;;19.02;13.25;;;8.80;99.90;;;;;;5078040;28;20525;-77
2021/09/08 03:35:04;;;;;;;20.75;13.50;;;8.80;99.90;;;;;;5078354;28;20023;-77
2021/09/08 03:37:30;;;;;;;30.83;14.10;;;8.80;99.90;;;;;;5078113;28;20115;-77
2021/09/08 03:39:56;;;;;;;24.25;13.55;;;8.80;99.90;;;;;;5079737;28;20091;-77
2021/09/08 03:42:24;;;;;;;20.48;12.90;;;8.80;99.90;;;;;;5078973;28;20028;-77
2021/09/08 03:44:50;;;;;;;26.33;14.43;;;8.80;99.90;;;;;;5077055;28;20122;-77
2021/09/08 03:47:16;;;;;;;28.23;13.40;;;8.70;99.90;;;;;;5078739;28;20044;-77
2021/09/08 03:49:45;;;;;;;22.33;13.02;;;8.70;99.90;;;;;;5078701;28;20031;-77
2021/09/08 03:52:15;;;;;;;23.52;13.25;;;8.70;99.90;;;;;;5077939;28;20037;-77
2021/09/08 03:54:41;;;;;;;18.77;12.00;;;8.70;99.90;;;;;;5081441;28;20546;-77
2021/09/08 03:57:07;;;;;;;19.25;12.20;;;8.70;99.90;;;;;;5084171;28;20020;-77
2021/09/08 03:59:36;;;;;;;16.58;11.63;;;8.70;99.90;;;;;;5084718;28;20039;-77
2021/09/08 04:02:02;;;;;;;23.40;13.30;;;8.60;99.90;;;;;;5082056;28;20029;-77
2021/09/08 04:04:28;;;;;;;20.63;12.90;;;8.70;99.90;;;;;;5076482;28;20039;-77
2021/09/08 04:06:53;;;;;;;24.35;13.30;;;8.70;99.90;;;;;;5089547;28;20059;-77
2021/09/08 04:09:19;;;;;;;20.58;13.05;;;8.60;99.90;;;;;;5080952;28;20400;-77
2021/09/08 04:11:45;;;;;;;19.52;11.55;;;8.60;99.90;;;;;;5079233;28;20526;-77
2021/09/08 04:14:11;;;;;;;21.25;13.48;;;8.60;99.90;;;;;;5085543;28;20025;-77
2021/09/08 04:16:36;;;;;;;23.52;12.82;;;8.60;99.90;;;;;;5092146;28;20027;-78
2021/09/08 04:19:03;;;;;;;21.50;12.07;;;8.60;99.90;;;;;;5084137;28;20059;-78
2021/09/08 04:21:29;;;;;;;24.25;12.90;;;8.60;99.90;;;;;;5087453;28;20030;-78
2021/09/08 04:23:54;;;;;;;21.90;12.05;;;8.60;99.90;;;;;;5088079;28;20054;-77
2021/09/08 04:26:21;;;;;;;23.42;12.57;;;8.60;99.90;;;;;;5089752;28;20111;-78
2021/09/08 04:28:46;;;;;;;23.80;13.50;;;8.60;99.90;;;;;;5090375;28;20406;-78
2021/09/08 04:31:12;;;;;;;22.35;13.10;;;8.60;99.90;;;;;;5086567;28;20035;-78
2021/09/08 04:33:38;;;;;;;21.45;12.55;;;8.60;99.90;;;;;;5087368;28;20453;-77
2021/09/08 04:36:04;;;;;;;23.15;13.68;;;8.70;99.90;;;;;;5088014;28;20028;-77
2021/09/08 04:38:29;;;;;;;17.63;12.43;;;8.70;99.90;;;;;;5091132;28;20052;-78
2021/09/08 04:40:56;;;;;;;26.58;13.23;;;8.70;99.90;;;;;;5089507;28;20047;-77
2021/09/08 04:43:21;;;;;;;23.90;14.02;;;8.70;99.90;;;;;;5081771;28;20111;-77
2021/09/08 04:45:47;;;;;;;26.40;12.95;;;8.80;99.90;;;;;;5085309;28;20024;-77
2021/09/08 04:48:13;;;;;;;21.73;14.43;;;8.90;99.90;;;;;;5085644;28;20067;-77
2021/09/08 04:50:39;;;;;;;24.13;13.23;;;8.90;99.90;;;;;;5088844;28;20033;-77
2021/09/08 04:53:05;;;;;;;23.70;13.18;;;8.90;99.90;;;;;;5085476;28;20405;-77
2021/09/08 04:55:30;;;;;;;28.75;12.93;;;9.00;99.90;;;;;;5082148;28;20082;-77
2021/09/08 04:57:56;;;;;;;21.27;11.88;;;9.10;99.90;;;;;;5079353;28;20032;-77
2021/09/08 05:00:21;;;;;;;21.95;12.43;;;9.10;99.90;;;;;;5087733;28;20029;-77
2021/09/08 05:02:47;;;;;;;21.83;12.10;;;9.20;99.90;;;;;;5093287;28;20377;-77
2021/09/08 05:05:13;;;;;;;18.10;12.10;;;9.30;99.90;;;;;;5092430;28;20481;-77
2021/09/08 05:07:39;;;;;;;21.33;13.05;;;9.30;99.90;;;;;;5092120;28;20062;-78
2021/09/08 05:10:05;;;;;;;23.70;13.48;;;9.40;99.90;;;;;;5088235;28;20036;-77
2021/09/08 05:12:34;;;;;;;25.02;15.40;;;9.60;99.90;;;;;;5094708;28;20036;-79
2021/09/08 05:15:00;;;;;;;16.20;11.45;;;9.60;99.90;;;;;;5072399;28;20029;-77
2021/09/08 05:17:26;;;;;;;20.27;12.25;;;9.70;99.90;;;;;;5075387;28;20021;-77
2021/09/08 05:19:52;;;;;;;26.77;12.43;;;9.80;99.90;;;;;;5089389;28;20036;-77
2021/09/08 05:22:18;;;;;;;30.42;13.52;;;9.90;99.90;;;;;;5074542;28;20386;-77
2021/09/08 05:24:44;;;;;;;17.63;12.55;;;10.00;99.90;;;;;;5074256;28;21062;-77
2021/09/08 05:27:09;;;;;;;22.20;13.02;;;10.10;99.90;;;;;;5073788;28;20020;-77
2021/09/08 05:29:35;;;;;;;26.17;15.45;;;10.30;99.90;;;;;;5073544;28;20040;-78
2021/09/08 05:32:00;;;;;;;21.30;13.80;;;10.50;99.90;;;;;;5072781;28;20024;-77
2021/09/08 05:34:26;;;;;;;28.08;14.98;;;10.60;99.90;;;;;;5074763;28;20033;-78
2021/09/08 05:36:52;;;;;;;21.92;14.50;;;10.70;99.90;;;;;;5072016;28;20041;-77
2021/09/08 05:39:18;;;;;;;26.15;14.73;;;10.90;99.90;;;;;;5087294;28;20021;-77
2021/09/08 05:41:43;;;;;;;24.13;14.65;;;11.10;99.90;;;;;;5088310;28;20438;-78
2021/09/08 05:44:09;;;;;;;21.75;14.25;;;11.20;99.90;;;;;;5095902;28;20028;-77
2021/09/08 05:46:34;;;;;;;18.90;13.43;;;11.40;99.90;;;;;;5074603;28;20063;-79
2021/09/08 05:49:00;;;;;;;19.17;12.93;;;11.60;99.90;;;;;;5090682;28;20024;-78
2021/09/08 05:51:26;;;;;;;18.17;11.77;;;11.70;99.90;;;;;;5090504;28;20012;-79
2021/09/08 05:53:52;;;;;;;19.50;12.52;;;11.90;99.90;;;;;;5086056;28;20036;-79
2021/09/08 05:56:17;;;;;;;21.17;13.73;;;12.10;99.90;;;;;;5087565;28;20022;-78
2021/09/08 05:58:43;;;;;;;22.25;13.25;;;12.20;99.90;;;;;;5088865;28;20413;-79
2021/09/08 06:01:09;;;;;;;18.55;13.82;;;12.30;99.90;;;;;;5092353;28;20031;-79
2021/09/08 06:03:34;;;;;;;19.48;12.90;;;12.50;99.90;;;;;;5090742;28;20028;-78
2021/09/08 06:06:00;;;;;;;22.17;14.23;;;12.60;99.90;;;;;;5091496;28;20031;-79
2021/09/08 06:08:28;;;;;;;24.77;14.75;;;12.70;99.90;;;;;;5090492;28;20474;-79
2021/09/08 06:10:54;;;;;;;21.42;13.20;;;12.90;99.90;;;;;;5093600;28;20024;-79
2021/09/08 06:13:20;;;;;;;28.42;16.05;;;13.10;99.90;;;;;;5091311;28;20482;-79
2021/09/08 06:15:46;;;;;;;26.60;15.25;;;13.20;99.90;;;;;;5090513;28;20492;-79
2021/09/08 06:18:11;;;;;;;24.67;14.15;;;13.40;99.90;;;;;;5090754;28;20024;-79
2021/09/08 06:20:37;;;;;;;22.13;13.20;;;13.70;99.90;;;;;;5090577;28;20016;-79
2021/09/08 06:23:03;;;;;;;25.05;14.68;;;13.80;99.90;;;;;;5091189;28;20102;-79
2021/09/08 06:25:29;;;;;;;22.63;14.15;;;14.10;99.90;;;;;;5074132;28;20032;-79
2021/09/08 06:27:54;;;;;;;21.85;13.25;;;14.40;99.90;;;;;;5084077;28;20469;-79
2021/09/08 06:30:20;;;;;;;27.45;14.30;;;14.70;99.90;;;;;;5091749;28;20012;-78
2021/09/08 06:32:46;;;;;;;27.85;14.82;;;14.90;99.90;;;;;;5091668;28;20028;-78
2021/09/08 06:35:12;;;;;;;20.73;12.55;;;15.10;99.90;;;;;;5090770;28;20024;-79
2021/09/08 06:37:38;;;;;;;24.75;12.57;;;15.30;99.90;;;;;;5092703;28;20012;-79
2021/09/08 06:40:04;;;;;;;22.92;13.85;;;15.50;99.90;;;;;;5091388;28;20024;-79
2021/09/08 06:42:30;;;;;;;20.05;12.77;;;15.60;99.90;;;;;;5092108;28;20031;-79
2021/09/08 06:44:55;;;;;;;19.73;12.10;;;15.70;99.90;;;;;;5089818;28;20385;-79
2021/09/08 06:47:22;;;;;;;19.88;11.07;;;15.90;99.90;;;;;;5093399;28;20027;-79
2021/09/08 06:49:50;;;;;;;18.70;12.77;;;16.10;99.90;;;;;;5086128;28;20500;-79
2021/09/08 06:52:16;;;;;;;19.88;11.90;;;16.20;99.90;;;;;;5092436;28;20036;-79
2021/09/08 06:54:42;;;;;;;14.40;10.65;;;16.40;99.90;;;;;;5074591;28;20017;-79
2021/09/08 06:57:09;;;;;;;14.88;9.25;;;16.50;99.90;;;;;;5073392;28;20504;-79
2021/09/08 06:59:35;;;;;;;14.98;11.40;;;16.60;99.90;;;;;;5088581;28;20032;-79
2021/09/08 07:02:00;;;;;;;17.65;11.32;;;16.70;99.90;;;;;;5092190;28;20069;-79
2021/09/08 07:04:27;;;;;;;30.63;14.07;;;16.80;99.90;;;;;;5090883;28;20076;-79
2021/09/08 07:06:53;;;;;;;18.52;10.95;;;16.90;99.90;;;;;;5091913;28;20070;-78
2021/09/08 07:09:18;;;;;;;14.85;9.77;;;17.00;99.90;;;;;;5089129;28;20452;-78
2021/09/08 07:11:44;;;;;;;11.85;9.82;;;17.10;99.90;;;;;;5091493;28;20397;-79
2021/09/08 07:14:10;;;;;;;16.33;9.70;;;17.20;99.90;;;;;;5086642;28;20468;-79
2021/09/08 07:16:35;;;;;;;13.75;9.98;;;17.30;99.90;;;;;;5091229;28;20060;-79
2021/09/08 07:19:02;;;;;;;14.50;10.15;;;17.40;99.90;;;;;;5090213;28;20446;-80
2021/09/08 07:21:27;;;;;;;12.57;9.20;;;17.50;99.90;;;;;;5089571;28;20038;-79
2021/09/08 07:23:53;;;;;;;13.55;10.52;;;17.70;99.90;;;;;;5084488;28;20103;-79
2021/09/08 07:26:19;;;;;;;20.10;10.40;;;17.80;99.90;;;;;;5092239;28;20077;-79
2021/09/08 07:28:44;;;;;;;13.57;9.68;;;18.00;99.90;;;;;;5091864;28;20028;-78
2021/09/08 07:31:10;;;;;;;14.85;10.15;;;18.10;99.90;;;;;;5080625;28;20025;-79
2021/09/08 07:33:36;;;;;;;15.55;10.95;;;18.20;99.90;;;;;;5072621;28;20512;-79
2021/09/08 07:36:02;;;;;;;14.57;10.02;;;18.40;99.90;;;;;;5071501;28;20103;-79
2021/09/08 07:38:28;;;;;;;15.15;9.95;;;18.60;99.90;;;;;;5075425;28;20028;-79
2021/09/08 07:40:55;;;;;;;17.45;11.40;;;18.70;99.90;;;;;;5089838;28;20066;-79
2021/09/08 07:43:21;;;;;;;17.95;10.45;;;18.90;99.90;;;;;;5078847;28;20027;-80
2021/09/08 07:45:48;;;;;;;10.90;9.27;;;19.00;98.30;;;;;;5089111;28;20024;-80
2021/09/08 07:48:14;;;;;;;13.50;9.82;;;19.10;96.50;;;;;;5085409;28;20043;-80
2021/09/08 07:50:40;;;;;;;13.55;10.80;;;19.20;99.90;;;;;;5090376;28;20020;-79
2021/09/08 07:53:09;;;;;;;16.67;10.80;;;19.20;97.50;;;;;;5091758;28;20036;-78
2021/09/08 07:55:36;;;;;;;13.20;9.73;;;19.40;93.30;;;;;;5090784;28;20024;-79
2021/09/08 07:58:03;;;;;;;15.80;10.07;;;19.50;91.50;;;;;;5108093;28;20119;-79
2021/09/08 08:00:30;;;;;;;13.30;9.15;;;19.60;88.40;;;;;;5091384;28;20020;-79
2021/09/08 08:02:55;;;;;;;14.70;9.68;;;19.60;85.20;;;;;;5090630;28;20118;-79
2021/09/08 08:05:21;;;;;;;13.68;10.10;;;19.60;84.40;;;;;;5092196;28;20099;-79
2021/09/08 08:07:47;;;;;;;14.38;9.80;;;19.80;85.90;;;;;;5091523;28;20020;-79
2021/09/08 08:10:16;;;;;;;12.35;9.48;;;19.90;87.40;;;;;;5089490;28;20036;-79
2021/09/08 08:12:41;;;;;;;11.23;8.95;;;20.00;85.70;;;;;;5092194;28;20032;-79
2021/09/08 08:15:08;;;;;;;14.57;9.68;;;20.20;85.30;;;;;;5083603;28;20121;-79
2021/09/08 08:17:34;;;;;;;14.57;9.27;;;20.40;84.90;;;;;;5091054;28;20081;-80
2021/09/08 08:20:00;;;;;;;12.48;9.93;;;20.50;83.90;;;;;;5083374;28;20040;-79
2021/09/08 08:22:26;;;;;;;12.63;9.25;;;20.60;85.00;;;;;;5092348;28;20092;-79
2021/09/08 08:24:52;;;;;;;14.52;9.35;;;20.60;79.80;;;;;;5085302;28;20114;-79
2021/09/08 08:27:17;;;;;;;15.25;9.65;;;20.70;82.20;;;;;;5093246;28;20394;-79
2021/09/08 08:29:43;;;;;;;13.48;10.45;;;20.70;82.20;;;;;;5081901;28;20028;-79
2021/09/08 08:32:09;;;;;;;11.73;8.85;;;20.80;81.40;;;;;;5078705;28;20036;-79
2021/09/08 08:34:35;;;;;;;12.68;9.05;;;20.80;80.00;;;;;;5085442;28;20020;-79
2021/09/08 08:37:01;;;;;;;11.27;9.40;;;21.00;80.70;;;;;;5095404;28;20090;-80
2021/09/08 08:39:26;;;;;;;13.73;9.18;;;21.10;77.70;;;;;;5075309;28;20033;-79
2021/09/08 08:41:52;;;;;;;12.52;9.73;;;21.20;75.30;;;;;;5070121;28;20016;-80
2021/09/08 08:44:24;;;;;;;14.98;8.75;;;21.20;75.50;;;;;;5085781;28;20081;-79
2021/09/08 08:46:51;;;;;;;11.85;9.85;;;21.30;74.30;;;;;;5090307;28;20486;-79
2021/09/08 08:49:17;;;;;;;14.57;8.93;;;21.20;67.60;;;;;;5089002;28;20028;-79
2021/09/08 08:51:43;;;;;;;13.57;9.95;;;21.30;69.60;;;;;;5084524;28;20366;-80
2021/09/08 08:54:09;;;;;;;12.30;9.48;;;21.20;69.40;;;;;;5089065;28;20021;-79
2021/09/08 08:56:34;;;;;;;14.20;9.15;;;21.40;70.60;;;;;;5073136;28;20054;-79
2021/09/08 08:59:00;;;;;;;13.32;8.77;;;21.50;66.20;;;;;;5088782;28;20043;-80
2021/09/08 09:01:26;;;;;;;10.65;8.52;;;21.60;66.40;;;;;;5111506;28;20024;-79
2021/09/08 09:04:09;;;;;;;12.10;8.45;;;21.70;65.20;;;;;;5109766;28;20028;-79
2021/09/08 09:06:42;;;;;;;10.73;7.60;;;21.70;67.20;;;;;;5095804;28;20078;-80
2021/09/08 09:09:13;;;;;;;11.43;8.68;;;21.70;65.40;;;;;;5092227;28;20040;-79
2021/09/08 09:11:43;;;;;;;11.07;8.15;;;21.80;66.00;;;;;;5111330;28;20035;-80
2021/09/08 09:14:10;;;;;;;11.23;8.13;;;21.90;68.40;;;;;;5098849;28;20119;-80
2021/09/08 09:16:39;;;;;;;11.63;8.20;;;21.90;67.00;;;;;;5073342;28;20020;-79
2021/09/08 09:19:06;;;;;;;12.27;9.00;;;22.00;68.30;;;;;;5082044;28;20044;-80
2021/09/08 09:21:32;;;;;;;12.23;8.48;;;22.10;67.90;;;;;;5110746;28;20363;-79
2021/09/08 09:24:01;;;;;;;8.32;7.28;;;22.20;69.50;;;;;;5090396;28;20037;-80
2021/09/08 09:26:26;;;;;;;10.80;8.40;;;22.40;66.50;;;;;;5075117;28;20064;-80
2021/09/08 09:28:54;;;;;;;10.02;8.25;;;22.40;63.50;;;;;;5079521;28;20047;-79
2021/09/08 09:31:22;;;;;;;10.85;8.27;;;22.40;64.30;;;;;;5095277;28;20058;-79
2021/09/08 09:33:54;;;;;;;11.48;7.78;;;22.60;69.10;;;;;;5085813;28;20406;-79
2021/09/08 09:36:31;;;;;;;13.38;8.77;;;22.70;66.90;;;;;;5088657;28;20020;-79
2021/09/08 09:38:58;;;;;;;11.32;7.70;;;22.80;62.80;;;;;;5098915;28;20070;-80
2021/09/08 09:41:26;;;;;;;10.57;7.80;;;22.80;61.30;;;;;;5074854;28;20040;-80
2021/09/08 09:43:52;;;;;;;9.25;7.35;;;22.80;59.60;;;;;;5083447;28;20063;-79
2021/09/08 09:46:18;;;;;;;9.98;6.57;;;22.80;59.60;;;;;;5086063;28;20067;-80
2021/09/08 09:48:44;;;;;;;10.50;6.60;;;22.90;60.80;;;;;;5076874;28;20025;-80
2021/09/08 09:51:12;;;;;;;7.82;6.00;;;23.00;56.50;;;;;;5110589;28;20035;-80
2021/09/08 09:53:39;;;;;;;9.13;6.70;;;22.90;53.90;;;;;;5103688;28;20028;-80
2021/09/08 09:56:06;;;;;;;6.88;6.05;;;23.00;53.90;;;;;;5108243;28;20028;-79
2021/09/08 09:58:31;;;;;;;8.25;6.72;;;23.00;54.00;;;;;;5079103;28;20024;-80
2021/09/08 10:00:57;;;;;;;7.93;6.25;;;23.10;54.70;;;;;;5093985;28;20092;-80
2021/09/08 10:03:23;;;;;;;8.50;7.28;;;23.10;54.80;;;;;;5106544;28;20546;-80
2021/09/08 10:05:49;;;;;;;9.32;6.93;;;23.10;54.60;;;;;;5094568;28;20020;-80
2021/09/08 10:08:21;;;;;;;10.10;7.00;;;23.00;54.20;;;;;;5092709;28;20397;-80
2021/09/08 10:10:50;;;;;;;9.17;6.53;;;23.00;52.50;;;;;;5072351;28;20020;-80
2021/09/08 10:13:40;;;;;;;6.63;5.93;;;22.90;52.50;;;;;;5073674;28;20033;-79
2021/09/08 10:16:06;;;;;;;9.00;6.85;;;22.90;53.50;;;;;;5094353;28;20077;-80
2021/09/08 10:18:35;;;;;;;9.82;6.70;;;23.00;52.70;;;;;;5109807;28;20047;-80
2021/09/08 10:21:10;;;;;;;10.55;7.00;;;23.00;51.40;;;;;;5093905;28;20032;-79
2021/09/08 10:23:43;;;;;;;8.32;6.70;;;23.00;52.40;;;;;;5078518;28;20073;-79
2021/09/08 10:26:12;;;;;;;9.18;6.57;;;23.10;53.70;;;;;;5093505;28;20112;-80
2021/09/08 10:28:40;;;;;;;8.10;6.57;;;23.20;52.90;;;;;;5093575;28;20054;-79
2021/09/08 10:31:07;;;;;;;9.52;7.57;;;23.20;51.30;;;;;;5110042;28;20437;-79
2021/09/08 10:33:42;;;;;;;9.95;7.20;;;23.20;50.60;;;;;;5096051;28;20039;-79
2021/09/08 10:36:13;;;;;;;10.73;7.13;;;23.10;52.30;;;;;;5093895;28;20039;-79
2021/09/08 10:38:40;;;;;;;10.07;7.18;;;23.20;52.20;;;;;;5078116;28;20105;-80
2021/09/08 10:41:08;;;;;;;8.82;6.82;;;23.30;52.60;;;;;;5072172;28;20441;-79
2021/09/08 10:43:36;;;;;;;11.70;7.13;;;23.20;51.30;;;;;;5074188;28;20039;-79
2021/09/08 10:46:03;;;;;;;13.07;7.90;;;23.00;53.50;;;;;;5072216;28;20381;-80
2021/09/08 10:48:42;;;;;;;7.90;6.90;;;22.90;52.10;;;;;;5072156;28;20056;-79
2021/09/08 10:51:20;;;;;;;8.57;7.65;;;23.00;52.90;;;;;;5083259;28;20040;-79
2021/09/08 10:54:06;;;;;;;9.68;7.30;;;23.10;53.00;;;;;;5072910;28;20390;-79
2021/09/08 10:56:43;;;;;;;10.55;7.43;;;23.10;51.60;;;;;;5090819;28;20469;-80
2021/09/08 10:59:09;;;;;;;9.45;7.20;;;23.00;52.90;;;;;;5081591;28;20107;-79
2021/09/08 11:01:35;;;;;;;8.85;7.93;;;22.90;53.40;;;;;;5073365;28;20112;-79
2021/09/08 11:04:01;;;;;;;10.70;7.00;;;22.90;52.90;;;;;;5071862;28;20052;-80
2021/09/08 11:06:43;;;;;;;12.98;7.80;;;22.80;54.10;;;;;;5071713;28;20024;-79
2021/09/08 11:09:11;;;;;;;15.25;8.43;;;22.70;57.10;;;;;;5077591;28;20486;-80
2021/09/08 11:11:50;;;;;;;15.13;7.88;;;22.60;58.90;;;;;;5071801;28;20021;-79
2021/09/08 11:14:16;;;;;;;11.02;8.13;;;22.60;58.30;;;;;;5079194;28;20078;-79
2021/09/08 11:16:42;;;;;;;10.05;8.13;;;22.60;56.30;;;;;;5092959;28;20020;-80
2021/09/08 11:19:12;;;;;;;12.70;8.25;;;22.50;55.80;;;;;;5104660;28;20045;-79
2021/09/08 11:21:38;;;;;;;9.55;7.78;;;22.60;55.70;;;;;;5071995;28;20103;-79
2021/09/08 11:24:10;;;;;;;12.48;8.05;;;22.60;58.00;;;;;;5077578;28;20111;-79
2021/09/08 11:26:38;;;;;;;10.00;7.43;;;22.80;57.60;;;;;;5092118;28;20035;-79
2021/09/08 11:29:06;;;;;;;11.95;7.72;;;23.00;55.20;;;;;;5098001;28;20103;-79
2021/09/08 11:31:35;;;;;;;15.18;8.00;;;23.20;53.50;;;;;;5072751;28;20039;-79
2021/09/08 11:34:02;;;;;;;8.65;7.40;;;23.40;55.30;;;;;;5076731;28;20029;-79
2021/09/08 11:36:29;;;;;;;12.70;7.32;;;23.60;55.10;;;;;;5072377;28;20120;-79
2021/09/08 11:39:00;;;;;;;11.73;7.38;;;23.80;54.10;;;;;;5082391;28;20066;-79
2021/09/08 11:41:27;;;;;;;13.10;7.47;;;24.00;54.30;;;;;;5107600;28;20027;-80
2021/09/08 11:43:55;;;;;;;9.32;7.35;;;24.10;52.30;;;;;;5070534;28;20424;-79
2021/09/08 11:46:31;;;;;;;10.52;7.38;;;24.30;51.40;;;;;;5077338;28;20027;-78
2021/09/08 11:49:10;;;;;;;9.43;7.10;;;24.40;50.90;;;;;;5082530;28;20093;-79
2021/09/08 11:51:37;;;;;;;8.55;7.22;;;24.40;51.20;;;;;;5106298;28;20038;-79
2021/09/08 11:54:13;;;;;;;10.23;7.28;;;24.40;52.20;;;;;;5075749;28;20033;-79
2021/09/08 11:56:40;;;;;;;9.25;7.15;;;24.10;51.30;;;;;;5074332;28;20016;-78
2021/09/08 11:59:06;;;;;;;8.02;7.20;;;24.00;51.30;;;;;;5088483;28;20534;-78
2021/09/08 12:01:37;;;;;;;10.27;7.00;;;23.90;50.40;;;;;;5091122;28;20016;-78
2021/09/08 12:04:04;;;;;;;8.83;7.20;;;23.90;52.70;;;;;;5088692;28;20032;-78
2021/09/08 12:06:33;;;;;;;9.55;7.07;;;23.80;53.80;;;;;;5101488;28;20021;-78
2021/09/08 12:09:04;;;;;;;7.47;6.35;;;23.60;53.40;;;;;;5085550;28;20036;-78
2021/09/08 12:11:56;;;;;;;9.27;6.75;;;23.40;53.70;;;;;;5090019;28;20024;-79
2021/09/08 12:14:34;;;;;;;9.27;7.07;;;23.40;56.00;;;;;;5087049;28;20439;-77
2021/09/08 12:17:02;;;;;;;8.85;7.45;;;23.50;57.60;;;;;;5076131;28;20036;-79
2021/09/08 12:19:36;;;;;;;9.50;7.68;;;23.40;57.10;;;;;;5084825;28;20119;-78
2021/09/08 12:22:03;;;;;;;7.95;7.00;;;23.30;53.70;;;;;;5089956;28;20473;-79
2021/09/08 12:24:31;;;;;;;9.35;7.00;;;23.20;52.80;;;;;;5090412;28;20111;-79
2021/09/08 12:26:58;;;;;;;8.77;7.50;;;23.10;54.40;;;;;;5087691;28;20543;-79
2021/09/08 12:29:25;;;;;;;7.85;6.70;;;23.00;56.20;;;;;;5087888;28;20500;-79
2021/09/08 12:31:57;;;;;;;11.25;7.28;;;22.90;57.70;;;;;;5084788;28;20500;-79
2021/09/08 12:34:23;;;;;;;10.15;7.25;;;22.90;57.60;;;;;;5091262;28;20036;-78